LFPM 030700Z AUTO 28004KT 4100 -RA BR ///TCU 05/05 Q0999

Les avions qui composent notre flotte

Beechcraft 33 Bonanza

Le haut de gamme de l'aviation légère
IFR, Pas variable, Train rentrant

F-BRIZ


F-BRIZ Planche